Time;durP1;ratioP1;P1;durP2;ratioP2;P2;SDS_P1;SDS_P2;PMS_P1;PMS_P2;Temp;Humidity;BMP_temperature;BMP_pressure;BME280_temperature;BME280_humidity;BME280_pressure;Samples;Min_cycle;Max_cycle;Signal;HPM_P1;HPM_P2
2022/11/07 00:02:14;;;;;;;8.40;2.80;;;;;;;10.87;100.00;100772.06;5064468;28;20038;-72
2022/11/07 00:04:40;;;;;;;7.20;2.80;;;;;;;10.96;100.00;100770.00;5061091;28;20028;-71
2022/11/07 00:07:06;;;;;;;12.87;4.50;;;;;;;11.03;100.00;100770.88;5047916;28;20036;-72
2022/11/07 00:09:32;;;;;;;14.38;3.55;;;;;;;10.99;100.00;100769.59;5047942;28;20031;-71
2022/11/07 00:11:58;;;;;;;11.63;2.73;;;;;;;10.95;100.00;100771.06;5057741;28;20037;-72
2022/11/07 00:14:23;;;;;;;7.90;2.73;;;;;;;10.86;100.00;100764.88;5060163;28;20262;-71
2022/11/07 00:16:49;;;;;;;11.05;3.15;;;;;;;10.94;100.00;100766.63;5060218;28;20502;-71
2022/11/07 00:19:19;;;;;;;16.08;3.30;;;;;;;10.91;100.00;100780.72;5067173;28;20028;-71
2022/11/07 00:21:46;;;;;;;13.32;3.85;;;;;;;10.88;100.00;100783.88;5042483;28;20025;-72
2022/11/07 00:24:12;;;;;;;22.50;3.67;;;;;;;10.83;100.00;100775.41;5063793;28;20029;-72
2022/11/07 00:26:38;;;;;;;10.20;3.00;;;;;;;10.88;100.00;100783.88;5047305;28;20480;-72
2022/11/07 00:29:04;;;;;;;10.02;3.03;;;;;;;10.92;100.00;100772.31;5056522;28;20289;-72
2022/11/07 00:31:29;;;;;;;23.87;3.40;;;;;;;10.90;100.00;100774.38;5064024;28;20032;-72
2022/11/07 00:33:56;;;;;;;11.23;3.50;;;;;;;10.87;100.00;100771.19;5062434;28;20108;-71
2022/11/07 00:36:24;;;;;;;7.78;2.67;;;;;;;10.85;100.00;100781.53;5054464;28;20029;-72
2022/11/07 00:38:49;;;;;;;12.70;3.30;;;;;;;10.78;100.00;100786.13;5057020;28;20028;-71
2022/11/07 00:41:15;;;;;;;11.57;2.70;;;;;;;10.76;100.00;100779.97;5061917;28;20043;-72
2022/11/07 00:43:40;;;;;;;13.53;3.77;;;;;;;10.77;100.00;100788.00;5060437;28;20064;-71
2022/11/07 00:46:08;;;;;;;13.33;2.90;;;;;;;10.84;100.00;100788.06;5064098;28;20529;-72
2022/11/07 00:48:34;;;;;;;13.18;3.28;;;;;;;10.83;100.00;100789.09;5061119;28;20036;-71
2022/11/07 00:51:11;;;;;;;8.83;2.47;;;;;;;10.88;100.00;100784.69;5061413;28;20056;-71
2022/11/07 00:53:37;;;;;;;13.15;2.20;;;;;;;10.80;100.00;100782.13;5044831;28;20043;-72
2022/11/07 00:56:05;;;;;;;8.23;1.85;;;;;;;10.79;100.00;100785.06;5059929;28;20097;-71
2022/11/07 00:58:30;;;;;;;7.78;2.10;;;;;;;10.75;100.00;100787.38;5061319;28;20044;-72
2022/11/07 01:00:56;;;;;;;13.87;3.23;;;;;;;10.81;100.00;100800.25;5064692;28;20037;-72
2022/11/07 01:06:06;;;;;;;8.00;2.47;;;;;;;10.85;100.00;100822.63;5058881;28;20391;-71
2022/11/07 01:08:31;;;;;;;18.10;2.87;;;;;;;10.87;99.98;100795.84;5065375;28;20032;-72
2022/11/07 01:10:57;;;;;;;14.00;3.50;;;;;;;10.83;100.00;100813.78;5063517;28;20054;-72
2022/11/07 01:13:24;;;;;;;12.90;2.70;;;;;;;10.90;100.00;100810.00;5047035;28;20100;-71
2022/11/07 01:15:49;;;;;;;20.33;2.90;;;;;;;10.82;100.00;100815.66;5044571;28;20025;-71
2022/11/07 01:18:15;;;;;;;17.63;2.60;;;;;;;10.81;100.00;100811.22;5057804;28;20029;-72
2022/11/07 01:20:41;;;;;;;14.47;2.67;;;;;;;10.83;100.00;100813.78;5065088;28;20032;-72
2022/11/07 01:23:07;;;;;;;11.70;2.35;;;;;;;10.77;100.00;100809.91;5065953;28;20033;-71
2022/11/07 01:25:34;;;;;;;15.43;2.30;;;;;;;10.79;100.00;100823.44;5062725;28;20143;-72
2022/11/07 01:27:59;;;;;;;15.45;2.42;;;;;;;10.82;100.00;100818.38;5066473;28;20127;-72
2022/11/07 01:30:25;;;;;;;9.17;2.33;;;;;;;10.80;100.00;100823.22;5043956;28;20144;-71
2022/11/07 01:32:50;;;;;;;9.90;2.53;;;;;;;10.76;100.00;100824.66;5061066;28;20025;-72
2022/11/07 01:35:15;;;;;;;19.02;3.00;;;;;;;10.77;100.00;100820.88;5061617;28;20029;-72
2022/11/07 01:37:41;;;;;;;13.23;2.97;;;;;;;10.80;100.00;100831.47;5056746;28;20084;-72
2022/11/07 01:40:07;;;;;;;11.13;2.80;;;;;;;10.78;100.00;100824.47;5060187;28;20044;-72
2022/11/07 01:42:32;;;;;;;11.00;2.93;;;;;;;10.81;100.00;100838.63;5062580;28;20071;-72
2022/11/07 01:44:59;;;;;;;6.13;2.17;;;;;;;10.92;100.00;100837.22;5044539;28;20025;-72
2022/11/07 01:47:36;;;;;;;14.23;3.40;;;;;;;10.91;100.00;100839.13;5062980;28;20142;-71
2022/11/07 01:50:04;;;;;;;8.73;2.22;;;;;;;10.96;100.00;100831.16;5046064;28;20056;-72
2022/11/07 01:52:40;;;;;;;13.18;2.47;;;;;;;10.92;100.00;100835.34;5060360;28;20035;-72
2022/11/07 01:55:06;;;;;;;11.25;2.38;;;;;;;10.97;100.00;100838.31;5064228;28;20029;-72
2022/11/07 01:57:36;;;;;;;12.47;3.30;;;;;;;11.02;100.00;100840.44;5063567;28;20550;-73
2022/11/07 02:00:07;;;;;;;16.15;3.53;;;;;;;10.97;100.00;100838.31;5060691;28;20476;-72
2022/11/07 02:02:33;;;;;;;8.55;2.47;;;;;;;10.89;100.00;100829.41;5064862;28;20077;-72
2022/11/07 02:05:01;;;;;;;13.30;2.77;;;;;;;10.90;100.00;100834.66;5059477;28;20555;-73
2022/11/07 02:07:28;;;;;;;10.68;2.67;;;;;;;10.95;100.00;100837.66;5057764;28;20482;-73
2022/11/07 02:09:54;;;;;;;16.60;3.00;;;;;;;10.90;100.00;100831.94;5048911;28;20539;-73
2022/11/07 02:12:22;;;;;;;12.00;3.23;;;;;;;10.86;100.00;100838.00;5062614;28;20185;-72
2022/11/07 02:14:47;;;;;;;13.38;2.78;;;;;;;10.88;100.00;100841.41;5041344;28;20448;-73
2022/11/07 02:17:14;;;;;;;12.63;2.97;;;;;;;10.82;100.00;100840.31;5063555;28;20056;-72
2022/11/07 02:19:48;;;;;;;12.05;2.90;;;;;;;10.79;100.00;100848.91;5060003;28;20035;-72
2022/11/07 02:22:32;;;;;;;15.35;2.95;;;;;;;10.76;100.00;100851.22;5053415;28;20078;-73
2022/11/07 02:25:01;;;;;;;13.80;3.00;;;;;;;10.86;100.00;100843.50;5058119;28;22473;-73
2022/11/07 02:27:30;;;;;;;11.30;2.63;;;;;;;10.83;100.00;100847.47;5060436;28;20028;-72
2022/11/07 02:30:00;;;;;;;15.18;2.83;;;;;;;10.82;100.00;100845.78;5059171;28;20028;-72
2022/11/07 02:32:26;;;;;;;13.50;3.05;;;;;;;10.87;100.00;100836.97;5063260;28;20463;-72
2022/11/07 02:34:59;;;;;;;14.97;2.53;;;;;;;10.86;100.00;100832.53;5065072;28;20115;-72
2022/11/07 02:37:38;;;;;;;20.75;3.15;;;;;;;10.84;100.00;100837.38;5060617;28;20024;-73
2022/11/07 02:40:08;;;;;;;14.20;3.40;;;;;;;10.80;100.00;100830.59;5043674;28;20025;-72
2022/11/07 02:42:44;;;;;;;18.40;3.70;;;;;;;10.72;100.00;100839.81;5062774;28;20027;-73
2022/11/07 02:45:15;;;;;;;12.30;2.83;;;;;;;10.70;100.00;100841.91;5059383;28;20025;-72
2022/11/07 02:47:40;;;;;;;14.50;2.85;;;;;;;10.67;100.00;100841.47;5061026;28;20036;-72
2022/11/07 02:50:08;;;;;;;19.33;2.77;;;;;;;10.71;100.00;100840.00;5061155;28;20085;-73
2022/11/07 02:52:34;;;;;;;11.98;3.13;;;;;;;10.70;100.00;100827.34;5065500;28;20273;-72
2022/11/07 02:54:59;;;;;;;11.60;2.83;;;;;;;10.74;100.00;100842.34;5060570;28;20074;-72
2022/11/07 02:57:25;;;;;;;11.73;2.28;;;;;;;10.77;100.00;100834.56;5065269;28;20040;-72
2022/11/07 02:59:51;;;;;;;10.52;2.92;;;;;;;10.81;100.00;100844.09;5066089;28;20052;-72
2022/11/07 03:02:16;;;;;;;16.17;3.53;;;;;;;10.80;100.00;100842.41;5068069;28;20024;-72
2022/11/07 03:04:41;;;;;;;11.00;3.10;;;;;;;10.88;100.00;100844.16;5060873;28;20055;-73
2022/11/07 03:07:07;;;;;;;7.60;2.50;;;;;;;10.93;99.78;100845.25;5066491;28;20048;-72
2022/11/07 03:09:32;;;;;;;14.57;2.65;;;;;;;10.94;100.00;100849.66;5070370;28;20498;-72
2022/11/07 03:11:58;;;;;;;12.83;2.57;;;;;;;10.99;99.35;100851.84;5066640;28;20029;-72
2022/11/07 03:14:23;;;;;;;15.60;2.93;;;;;;;10.95;99.78;100856.84;5044812;28;20490;-72
2022/11/07 03:16:49;;;;;;;14.10;2.73;;;;;;;10.97;99.65;100860.25;5060106;28;20103;-72
2022/11/07 03:19:14;;;;;;;14.80;2.43;;;;;;;11.06;99.92;100866.41;5045172;28;20020;-72
2022/11/07 03:21:39;;;;;;;10.77;3.03;;;;;;;11.02;99.89;100865.13;5041331;28;20058;-72
2022/11/07 03:24:05;;;;;;;14.43;3.00;;;;;;;11.01;100.00;100858.81;5060572;28;20116;-73
2022/11/07 03:26:30;;;;;;;15.87;3.13;;;;;;;11.01;100.00;100849.72;5060283;28;20033;-73
2022/11/07 03:28:58;;;;;;;11.73;2.60;;;;;;;11.01;100.00;100852.47;5064701;28;20024;-73
2022/11/07 03:31:24;;;;;;;24.00;3.33;;;;;;;10.91;100.00;100844.59;5046281;28;20473;-73
2022/11/07 03:33:49;;;;;;;26.73;3.17;;;;;;;10.89;100.00;100852.16;5060372;28;20021;-73
2022/11/07 03:36:14;;;;;;;15.32;2.67;;;;;;;10.86;100.00;100854.47;5066305;28;20024;-73
2022/11/07 03:38:40;;;;;;;13.73;3.78;;;;;;;10.92;100.00;100856.41;5042495;28;20033;-73
2022/11/07 03:41:05;;;;;;;16.95;3.15;;;;;;;10.88;100.00;100855.94;5065973;28;20111;-73
2022/11/07 03:43:30;;;;;;;16.50;3.30;;;;;;;10.84;100.00;100853.81;5046296;28;20376;-73
2022/11/07 03:45:56;;;;;;;19.43;4.07;;;;;;;10.85;100.00;100852.75;5044820;28;20032;-73
2022/11/07 03:48:21;;;;;;;26.97;4.30;;;;;;;10.99;100.00;100860.06;5042588;28;20024;-73
2022/11/07 03:50:47;;;;;;;19.23;3.93;;;;;;;11.06;100.00;100853.53;5044622;28;20025;-73
2022/11/07 03:53:12;;;;;;;8.53;2.70;;;;;;;11.12;100.00;100850.03;5042526;28;20391;-72
2022/11/07 03:55:38;;;;;;;21.30;3.03;;;;;;;11.11;100.00;100847.47;5059835;28;20040;-73
2022/11/07 03:58:04;;;;;;;18.42;4.43;;;;;;;11.13;99.85;100853.59;5067889;28;20441;-72
2022/11/07 04:00:29;;;;;;;20.40;2.78;;;;;;;11.15;100.00;100841.38;5062723;28;20021;-72
2022/11/07 04:02:54;;;;;;;26.43;5.00;;;;;;;11.15;100.00;100846.03;5065362;28;20035;-73
2022/11/07 04:05:20;;;;;;;18.33;3.17;;;;;;;11.09;100.00;100846.81;5044054;28;20119;-73
2022/11/07 04:07:45;;;;;;;13.65;2.92;;;;;;;11.09;100.00;100841.34;5044894;28;20029;-73
2022/11/07 04:10:11;;;;;;;22.23;3.45;;;;;;;11.10;100.00;100843.06;5065332;28;20108;-73
2022/11/07 04:18:04;;;;;;;21.35;3.30;;;;;;;11.09;100.00;100841.34;5059605;28;20103;-73
2022/11/07 04:20:29;;;;;;;14.50;2.53;;;;;;;11.09;100.00;100844.06;5064121;28;20032;-73
2022/11/07 04:22:54;;;;;;;17.88;2.75;;;;;;;11.15;100.00;100848.78;5064498;28;20025;-73
2022/11/07 04:27:41;;;;;;;20.33;2.90;;;;;;;11.12;100.00;100847.28;5044924;28;20028;-73
2022/11/07 04:28:05;;;;;;;19.15;4.10;;;;;;;11.08;100.00;100847.88;5061788;28;20119;-73
2022/11/07 04:30:30;;;;;;;16.07;2.67;;;;;;;11.07;100.00;100848.91;5062661;28;20099;-73
2022/11/07 04:32:58;;;;;;;24.88;3.58;;;;;;;11.05;100.00;100840.06;5043925;28;20135;-73
2022/11/07 04:35:26;;;;;;;15.77;2.70;;;;;;;11.02;100.00;100845.94;5063263;28;20028;-73
2022/11/07 04:37:52;;;;;;;20.60;3.25;;;;;;;11.06;100.00;100845.31;5063852;28;20027;-73
2022/11/07 04:40:18;;;;;;;16.92;3.58;;;;;;;11.02;100.00;100845.94;5066272;28;20126;-73
2022/11/07 04:42:45;;;;;;;26.65;4.43;;;;;;;11.12;100.00;100858.25;5066293;28;20075;-73
2022/11/07 04:45:11;;;;;;;;;;;;;;;11.06;100.00;100852.72;5061661;28;20732;-73
2022/11/07 04:47:37;;;;;;;14.43;3.28;;;;;;;11.07;100.00;100862.63;5066163;28;19951;-73
2022/11/07 04:50:04;;;;;;;17.27;3.75;;;;;;;11.08;100.00;100856.09;5059073;28;20361;-72
2022/11/07 04:52:29;;;;;;;;;;;;;;;11.11;100.00;100851.06;5063873;28;20426;-72
2022/11/07 04:54:55;;;;;;;21.00;3.20;;;;;;;11.12;100.00;100858.25;5062677;28;19922;-72
2022/11/07 04:57:20;;;;;;;24.30;4.57;;;;;;;11.19;100.00;100863.75;5063401;28;20046;-73
2022/11/07 04:59:45;;;;;;;20.90;4.32;;;;;;;11.16;100.00;100859.53;5062710;28;20113;-73
2022/11/07 05:02:11;;;;;;;16.60;3.90;;;;;;;11.14;100.00;100858.03;5066721;28;20036;-73
2022/11/07 05:04:37;;;;;;;12.60;2.50;;;;;;;11.18;100.00;100864.81;5064641;28;20064;-73
2022/11/07 05:07:02;;;;;;;21.43;3.63;;;;;;;11.16;100.00;100864.19;5063441;28;20028;-72
2022/11/07 05:09:28;;;;;;;14.32;3.38;;;;;;;11.20;100.00;100858.09;5058608;28;20048;-73
2022/11/07 05:11:54;;;;;;;21.98;3.03;;;;;;;11.21;100.00;100864.44;5061191;28;20130;-73
2022/11/07 05:14:20;;;;;;;20.73;3.00;;;;;;;11.20;100.00;100863.56;5060104;28;20500;-73
2022/11/07 05:16:45;;;;;;;25.13;3.83;;;;;;;11.19;100.00;100861.88;5058394;28;20519;-73
2022/11/07 05:19:15;;;;;;;26.30;4.30;;;;;;;11.17;100.00;100865.88;5062808;28;20025;-73
2022/11/07 05:21:40;;;;;;;23.88;3.13;;;;;;;11.19;100.00;100869.25;5061170;28;20029;-73
2022/11/07 05:24:06;;;;;;;24.30;4.20;;;;;;;11.18;100.00;100864.81;5065721;28;20312;-72
2022/11/07 05:26:31;;;;;;;19.43;5.00;;;;;;;11.18;100.00;100873.03;5061644;28;20036;-73
2022/11/07 05:28:56;;;;;;;22.47;3.50;;;;;;;11.15;100.00;100873.47;5054444;28;20029;-73
2022/11/07 05:31:21;;;;;;;27.52;5.25;;;;;;;11.15;100.00;100873.47;5057120;28;20037;-72
2022/11/07 05:33:47;;;;;;;18.87;4.23;;;;;;;11.13;100.00;100872.78;5046050;28;20024;-72
2022/11/07 05:36:14;;;;;;;26.57;4.70;;;;;;;11.15;100.00;100868.81;5043922;28;20070;-73
2022/11/07 05:38:41;;;;;;;18.25;5.20;;;;;;;11.14;100.00;100866.25;5061140;28;20036;-72
2022/11/07 05:41:06;;;;;;;;;;;;;;;11.20;100.00;100860.81;5065890;28;20471;-72
2022/11/07 05:43:32;;;;;;;30.30;4.28;;;;;;;11.19;100.00;100870.09;5044632;28;19931;-72
2022/11/07 05:45:59;;;;;;;20.37;4.07;;;;;;;11.21;100.00;100858.94;5063441;28;20020;-72
2022/11/07 05:48:24;;;;;;;31.52;4.30;;;;;;;11.20;100.00;100855.34;5062428;28;20039;-72
2022/11/07 05:50:49;;;;;;;28.97;5.03;;;;;;;11.18;100.00;100856.59;5064261;28;20507;-72
2022/11/07 05:53:16;;;;;;;25.25;3.92;;;;;;;11.20;100.00;100857.25;5063177;28;20021;-72
2022/11/07 05:55:41;;;;;;;22.05;5.68;;;;;;;11.24;100.00;100864.88;5060861;28;20103;-72
2022/11/07 05:58:08;;;;;;;33.03;5.93;;;;;;;11.28;100.00;100868.03;5059555;28;20036;-72
2022/11/07 06:00:33;;;;;;;;;;;;;;;11.18;100.00;100860.19;5060973;28;20115;-72
2022/11/07 06:02:59;;;;;;;21.93;4.43;;;;;;;11.19;100.00;100864.63;5063833;28;20411;-71
2022/11/07 06:05:24;;;;;;;27.55;5.20;;;;;;;11.20;100.00;100865.47;5063819;28;20285;-73
2022/11/07 06:07:50;;;;;;;22.13;5.47;;;;;;;11.28;100.00;100862.56;5062319;28;20044;-71
2022/11/07 06:10:15;;;;;;;14.40;4.30;;;;;;;11.28;100.00;100863.41;5058708;28;20471;-71
2022/11/07 06:12:41;;;;;;;22.67;4.87;;;;;;;11.26;100.00;100872.91;5061773;28;20075;-71
2022/11/07 06:15:07;;;;;;;22.97;4.53;;;;;;;11.26;100.00;100870.97;5041922;28;20033;-71
2022/11/07 06:17:32;;;;;;;24.17;5.78;;;;;;;11.33;100.00;100868.28;5061037;28;20364;-71
2022/11/07 06:19:58;;;;;;;21.97;4.17;;;;;;;11.29;100.00;100869.72;5027992;28;20082;-71
2022/11/07 06:22:26;;;;;;;19.63;4.00;;;;;;;11.39;100.00;100871.09;5045374;28;20040;-71
2022/11/07 06:24:51;;;;;;;21.15;3.53;;;;;;;11.42;100.00;100864.34;5023986;28;20048;-72
2022/11/07 06:27:16;;;;;;;23.27;4.70;;;;;;;11.42;100.00;100875.31;5041679;28;20404;-72
2022/11/07 06:29:42;;;;;;;27.98;4.10;;;;;;;11.44;100.00;100878.69;5041230;28;20083;-72
2022/11/07 06:32:07;;;;;;;22.13;4.40;;;;;;;11.41;100.00;100884.56;5038035;28;20472;-71
2022/11/07 06:34:32;;;;;;;27.30;4.60;;;;;;;11.38;100.00;100885.81;5038425;28;20190;-71
2022/11/07 06:36:58;;;;;;;26.92;3.47;;;;;;;11.34;100.00;100884.56;5040105;28;20029;-72
2022/11/07 06:39:23;;;;;;;22.30;4.23;;;;;;;11.35;100.00;100883.50;5045291;28;20122;-71
2022/11/07 06:41:48;;;;;;;16.10;3.22;;;;;;;11.33;100.00;100891.09;5042107;28;20132;-72
2022/11/07 06:44:15;;;;;;;22.63;4.00;;;;;;;11.31;100.00;100893.16;5040241;28;20037;-71
2022/11/07 06:46:40;;;;;;;21.25;3.58;;;;;;;11.29;100.00;100894.41;5036215;28;20451;-72
2022/11/07 06:49:06;;;;;;;24.77;4.40;;;;;;;11.28;100.00;100889.97;5040716;28;20068;-72
2022/11/07 06:51:31;;;;;;;15.63;3.03;;;;;;;11.27;100.00;100891.03;5025531;28;20060;-71
2022/11/07 06:53:56;;;;;;;15.47;3.17;;;;;;;11.25;100.00;100890.38;5025346;28;20098;-71
2022/11/07 06:56:23;;;;;;;13.48;3.78;;;;;;;11.24;100.00;100899.66;5039638;28;20021;-71
2022/11/07 06:58:48;;;;;;;19.42;3.65;;;;;;;11.21;100.00;100894.59;5044559;28;20089;-71
2022/11/07 07:01:14;;;;;;;23.47;3.63;;;;;;;11.18;100.00;100895.84;5039047;28;20033;-71
2022/11/07 07:03:40;;;;;;;11.47;2.57;;;;;;;11.22;100.00;100907.25;5024345;28;20061;-72
2022/11/07 07:06:12;;;;;;;27.77;3.53;;;;;;;11.25;100.00;100893.09;5038560;28;20199;-71
2022/11/07 07:08:37;;;;;;;23.65;3.92;;;;;;;11.26;100.00;100897.56;5038589;28;20048;-72
2022/11/07 07:11:06;;;;;;;21.03;3.43;;;;;;;11.26;100.00;100908.53;5042311;28;20025;-72
2022/11/07 07:13:32;;;;;;;17.45;3.47;;;;;;;11.30;100.00;100898.84;5022092;28;20040;-72
2022/11/07 07:15:58;;;;;;;23.15;4.70;;;;;;;11.25;100.00;100902.19;5042671;28;20044;-71
2022/11/07 07:18:24;;;;;;;23.57;3.63;;;;;;;11.30;100.00;100902.44;5043414;28;20615;-71
2022/11/07 07:20:51;;;;;;;25.77;3.88;;;;;;;11.36;100.00;100904.38;5044151;28;20032;-71
2022/11/07 07:23:17;;;;;;;20.52;4.10;;;;;;;11.36;100.00;100907.13;5046470;28;20035;-71
2022/11/07 07:25:43;;;;;;;20.45;3.22;;;;;;;11.39;100.00;100914.09;5047817;28;20028;-73
2022/11/07 07:28:08;;;;;;;20.00;4.35;;;;;;;11.40;100.00;100921.28;5041350;28;20041;-73
2022/11/07 07:30:34;;;;;;;17.63;3.40;;;;;;;11.45;100.00;100921.53;5041215;28;20038;-71
2022/11/07 07:32:59;;;;;;;21.35;4.07;;;;;;;11.46;100.00;100932.31;5044575;28;20060;-71
2022/11/07 07:35:24;;;;;;;17.85;3.90;;;;;;;11.47;100.00;100931.25;5024602;28;20024;-71
2022/11/07 07:37:50;;;;;;;17.60;3.42;;;;;;;11.43;100.00;100953.81;5039483;28;20033;-72
2022/11/07 07:40:16;;;;;;;25.60;3.70;;;;;;;11.48;100.00;100943.91;5041560;28;20028;-72
2022/11/07 07:42:42;;;;;;;28.88;3.90;;;;;;;11.52;100.00;100938.91;5028332;28;20021;-72
2022/11/07 07:45:12;;;;;;;17.73;3.37;;;;;;;11.56;100.00;100942.91;5047389;28;20583;-72
2022/11/07 07:47:38;;;;;;;16.60;4.28;;;;;;;11.62;100.00;100943.00;5015400;28;20090;-72
2022/11/07 07:50:06;;;;;;;21.13;4.22;;;;;;;11.61;100.00;100957.75;5046159;28;20032;-72
2022/11/07 07:52:31;;;;;;;23.20;3.65;;;;;;;11.62;100.00;100947.63;5046742;28;20522;-72
2022/11/07 07:54:56;;;;;;;20.67;3.20;;;;;;;11.63;100.00;100944.69;5042560;28;20092;-72
2022/11/07 07:57:21;;;;;;;24.47;3.43;;;;;;;11.67;100.00;100947.88;5040616;28;20035;-72
2022/11/07 07:59:47;;;;;;;24.73;4.30;;;;;;;11.76;99.64;100957.63;5042137;28;20021;-72
2022/11/07 08:02:12;;;;;;;21.83;3.43;;;;;;;11.74;100.00;100948.78;5045834;28;20025;-72
2022/11/07 08:04:39;;;;;;;17.63;3.03;;;;;;;11.80;99.42;100959.75;5042406;28;20112;-72
2022/11/07 08:07:05;;;;;;;17.67;3.95;;;;;;;11.88;99.40;100959.63;5021441;28;20100;-72
2022/11/07 08:09:35;;;;;;;17.03;3.60;;;;;;;11.89;99.79;100955.81;5028205;28;20068;-72
2022/11/07 08:12:04;;;;;;;20.38;4.05;;;;;;;11.87;99.29;100962.56;5039100;28;20033;-73
2022/11/07 08:14:29;;;;;;;18.60;3.58;;;;;;;11.93;99.55;100957.09;5043435;28;20029;-72
2022/11/07 08:16:55;;;;;;;20.87;3.37;;;;;;;11.99;98.80;100966.41;5043101;28;20668;-72
2022/11/07 08:19:20;;;;;;;22.40;4.70;;;;;;;12.03;98.57;100971.31;5037462;28;20442;-72
2022/11/07 08:21:45;;;;;;;18.57;4.90;;;;;;;12.04;99.33;100975.75;5033154;28;20064;-72
2022/11/07 08:24:11;;;;;;;15.47;3.53;;;;;;;12.05;99.09;100984.81;5035960;28;20029;-73
2022/11/07 08:26:36;;;;;;;20.37;3.43;;;;;;;12.15;98.56;100985.28;5039017;28;20032;-72
2022/11/07 08:29:02;;;;;;;17.57;2.97;;;;;;;12.15;98.44;100993.53;5040027;28;20044;-72
2022/11/07 08:31:28;;;;;;;23.60;3.43;;;;;;;12.24;98.66;101003.31;5042738;28;20029;-72
2022/11/07 08:33:57;;;;;;;27.73;3.33;;;;;;;12.26;97.90;101006.69;5036357;28;20029;-72
2022/11/07 08:36:22;;;;;;;22.48;3.33;;;;;;;12.29;97.66;101006.28;5042714;28;20028;-72
2022/11/07 08:38:48;;;;;;;13.03;2.97;;;;;;;12.32;97.24;101000.41;5038590;28;20033;-72
2022/11/07 08:41:13;;;;;;;23.10;3.53;;;;;;;12.30;97.74;101013.47;5038730;28;20033;-72
2022/11/07 08:43:38;;;;;;;23.87;3.90;;;;;;;12.34;98.07;101003.78;5039776;28;20120;-71
2022/11/07 08:46:04;;;;;;;20.50;3.30;;;;;;;12.36;96.98;101002.50;5043623;28;20033;-71
2022/11/07 08:48:29;;;;;;;17.02;3.55;;;;;;;12.37;96.95;101014.34;5045986;28;20036;-71
2022/11/07 08:50:56;;;;;;;23.13;3.67;;;;;;;12.35;97.50;101013.69;5042749;28;20130;-71
2022/11/07 08:53:23;;;;;;;19.63;3.35;;;;;;;12.39;97.52;101013.06;5042179;28;20083;-71
2022/11/07 08:55:48;;;;;;;22.50;4.40;;;;;;;12.47;97.02;101015.66;5043077;28;20017;-71
2022/11/07 08:58:14;;;;;;;19.13;3.33;;;;;;;12.49;97.17;101007.22;5040037;28;20049;-71
2022/11/07 09:00:40;;;;;;;22.57;2.93;;;;;;;12.52;96.40;101017.78;5025297;28;20594;-71
2022/11/07 09:03:13;;;;;;;22.97;3.60;;;;;;;12.53;96.54;101031.31;5022587;28;20033;-71
2022/11/07 09:05:38;;;;;;;18.17;4.30;;;;;;;12.59;96.17;101013.19;5037621;28;20029;-71
2022/11/07 09:08:04;;;;;;;24.53;4.40;;;;;;;12.60;96.87;101017.63;5041015;28;20037;-71
2022/11/07 09:10:29;;;;;;;16.60;4.17;;;;;;;12.57;96.90;101027.13;5037867;28;20065;-71
2022/11/07 09:12:54;;;;;;;21.70;3.77;;;;;;;12.60;96.69;101028.59;5020273;28;20029;-71
2022/11/07 09:15:20;;;;;;;23.83;3.20;;;;;;;12.60;97.20;101028.59;5040242;28;20481;-71
2022/11/07 09:17:46;;;;;;;19.90;3.20;;;;;;;12.59;97.42;101040.66;5041826;28;20094;-71
2022/11/07 09:20:15;;;;;;;16.15;2.95;;;;;;;12.58;97.85;101030.69;5037495;28;20043;-71
2022/11/07 09:22:40;;;;;;;19.80;3.40;;;;;;;12.60;97.59;101025.84;5021857;28;20036;-71
2022/11/07 09:25:06;;;;;;;26.00;4.33;;;;;;;12.65;97.08;101034.34;5037176;28;20458;-71
2022/11/07 09:27:32;;;;;;;20.17;3.33;;;;;;;12.64;97.06;101035.41;5020608;28;20145;-71
2022/11/07 09:29:57;;;;;;;13.27;3.40;;;;;;;12.65;97.29;101034.34;5041842;28;20205;-71
2022/11/07 09:32:22;;;;;;;18.03;4.17;;;;;;;12.73;97.40;101028.63;5039974;28;20036;-71
2022/11/07 09:34:47;;;;;;;21.30;3.37;;;;;;;12.75;96.95;101034.78;5043418;28;20035;-72
2022/11/07 09:37:13;;;;;;;22.17;3.60;;;;;;;12.77;96.70;101044.53;5038793;28;20246;-71
2022/11/07 09:39:38;;;;;;;15.60;3.70;;;;;;;12.78;96.62;101034.38;5039180;28;20407;-71
2022/11/07 09:42:20;;;;;;;22.90;4.23;;;;;;;12.84;96.51;101030.78;5045893;28;20107;-71
2022/11/07 09:44:56;;;;;;;22.42;3.95;;;;;;;13.00;95.42;101027.69;5041376;28;20056;-71
2022/11/07 09:47:28;;;;;;;15.63;2.77;;;;;;;13.02;94.75;101026.41;5040510;28;20025;-71
2022/11/07 09:50:05;;;;;;;19.80;4.38;;;;;;;13.08;94.06;101036.59;5040636;28;20266;-71
2022/11/07 09:52:45;;;;;;;25.40;5.55;;;;;;;13.08;94.89;101036.59;5042141;28;20068;-71
2022/11/07 09:55:16;;;;;;;27.08;4.20;;;;;;;13.15;95.41;101047.59;5043272;28;20029;-70
2022/11/07 09:57:41;;;;;;;17.25;3.33;;;;;;;13.16;94.07;101043.78;5024116;28;20209;-71
2022/11/07 10:00:14;;;;;;;13.77;2.87;;;;;;;13.18;93.88;101058.19;5043440;28;20029;-70
2022/11/07 10:03:02;;;;;;;15.20;2.92;;;;;;;13.22;93.68;101059.44;5043609;28;20032;-70
2022/11/07 10:05:39;;;;;;;13.00;3.15;;;;;;;13.29;93.75;101055.66;5039383;28;20037;-71
2022/11/07 10:08:15;;;;;;;18.00;3.90;;;;;;;13.31;92.74;101059.06;5026329;28;20064;-71
2022/11/07 10:10:58;;;;;;;19.42;3.42;;;;;;;13.32;93.18;101054.41;5021232;28;20051;-71
2022/11/07 10:13:46;;;;;;;16.30;3.35;;;;;;;13.32;93.28;101068.16;5015760;28;20040;-70
2022/11/07 10:16:31;;;;;;;19.08;2.90;;;;;;;13.33;93.69;101072.59;5036340;28;20064;-71
2022/11/07 10:19:31;;;;;;;18.60;3.25;;;;;;;13.46;92.83;101067.13;5037987;28;20060;-71
2022/11/07 10:22:07;;;;;;;18.17;3.20;;;;;;;13.47;92.83;101071.56;5037511;28;20033;-70
2022/11/07 10:24:46;;;;;;;15.13;3.17;;;;;;;13.51;92.53;101081.94;5034085;28;20060;-71
2022/11/07 10:27:12;;;;;;;15.65;2.88;;;;;;;13.54;92.09;101091.66;5043019;28;20300;-71
2022/11/07 10:29:46;;;;;;;18.48;2.90;;;;;;;13.54;91.86;101088.91;5038359;28;20108;-70
2022/11/07 10:32:21;;;;;;;17.17;3.92;;;;;;;13.47;92.06;101085.31;5042624;28;20072;-71
2022/11/07 10:34:54;;;;;;;15.27;4.68;;;;;;;13.49;92.17;101083.19;5042833;28;20500;-71
2022/11/07 10:37:19;;;;;;;24.98;4.72;;;;;;;13.53;91.60;101089.97;5043105;28;20079;-71
2022/11/07 10:39:45;;;;;;;15.67;3.77;;;;;;;13.56;92.08;101082.16;5040693;28;20037;-71
2022/11/07 10:42:17;;;;;;;12.97;3.63;;;;;;;13.57;91.67;101089.38;5038638;28;20108;-71
2022/11/07 10:44:43;;;;;;;21.13;4.50;;;;;;;13.61;91.46;101093.38;5040455;28;20116;-72
2022/11/07 10:47:35;;;;;;;21.05;3.58;;;;;;;13.67;90.87;101094.44;5037486;28;20404;-71
2022/11/07 10:50:15;;;;;;;18.38;3.42;;;;;;;13.65;91.46;101080.88;5035942;28;20396;-71
2022/11/07 10:52:40;;;;;;;26.23;4.40;;;;;;;13.75;91.20;101083.22;5040739;28;20548;-71
2022/11/07 10:55:13;;;;;;;26.33;4.00;;;;;;;13.77;90.75;101076.44;5019023;28;20113;-71
2022/11/07 10:57:39;;;;;;;23.95;4.07;;;;;;;13.72;91.41;101078.16;5043225;28;20037;-71
2022/11/07 11:00:22;;;;;;;22.60;3.90;;;;;;;13.81;90.06;101077.72;5039114;28;20503;-71
2022/11/07 11:02:49;;;;;;;18.10;4.28;;;;;;;13.82;91.38;101073.88;5040708;28;20025;-71
2022/11/07 11:05:25;;;;;;;20.25;4.50;;;;;;;13.81;90.06;101074.09;5042704;28;21704;-73
2022/11/07 11:07:51;;;;;;;22.75;3.85;;;;;;;13.79;90.92;101070.72;5042015;28;20544;-71
2022/11/07 11:10:24;;;;;;;23.63;3.67;;;;;;;13.81;90.59;101083.22;5043010;28;20037;-71
2022/11/07 11:12:50;;;;;;;22.23;4.50;;;;;;;13.84;90.61;101081.94;5041452;28;20035;-71
2022/11/07 11:15:19;;;;;;;20.50;4.27;;;;;;;13.87;90.58;101084.28;5044934;28;20025;-71
2022/11/07 11:17:45;;;;;;;30.55;4.20;;;;;;;13.89;89.94;101080.25;5038229;28;20048;-71
2022/11/07 11:20:33;;;;;;;19.63;3.88;;;;;;;13.90;90.38;101072.81;5041472;28;20029;-71
2022/11/07 11:23:00;;;;;;;21.80;4.32;;;;;;;13.87;89.96;101067.75;5045475;28;20383;-71
2022/11/07 11:25:25;;;;;;;19.17;3.80;;;;;;;13.93;90.01;101070.50;5022409;28;20025;-71